• Join FlightAware (Why Join?)
  • Login
  • US Flag 
03:35PM EST


 

Airport Tracker/Info


-or-


 

Live Flight TrackerFlight Track Log ✈ SKQ901 ✈ 23-Apr-2012 ✈ KBUY - KPDK

Flight Track Log - Related Links

Times and Time Zones

All times are in EDT time to prevent confusion due to time zone crossing. See the SKQ901 flight status page for this flight to view local times or setup timezone preferences in your user account.

Time Position Orientation Groundspeed Altitude Reporting Facility
EDT Latitude Longitude Course Direction KTS MPH feet Rate Location/Type
10:40PM 35.9886 -80.0303 265° West 184 212 8,000  Level Atlanta Center
10:41PM 35.9844 -80.0944 262° West 179 206 8,000  Level Atlanta Center
10:42PM 35.9781 -80.1514 265° West 174 200 8,000  Level Atlanta Center
10:43PM 35.9736 -80.2106 262° West 174 200 8,000  Level Atlanta Center
10:44PM 35.9669 -80.2672 264° West 179 206 8,000  Level Atlanta Center
10:45PM 35.9622 -80.3189 263° West 179 206 8,000  Level Atlanta Center
10:46PM 35.9558 -80.3808 264° West 179 206 8,000  Level Atlanta Center
10:47PM 35.9511 -80.4372 261° West 179 206 8,000  Level Atlanta Center
10:48PM 35.9428 -80.5044 264° West 185 213 8,000  Level Atlanta Center
10:49PM 35.9381 -80.5636 264° West 179 206 8,000  Level Atlanta Center
10:50PM 35.9333 -80.6150 262° West 179 206 8,000  Level Atlanta Center
10:51PM 35.9267 -80.6744 262° West 179 206 8,000  Level Atlanta Center
10:52PM 35.9200 -80.7336 261° West 179 206 8,000  Level Atlanta Center
10:53PM 35.9131 -80.7903 267° West 179 206 8,000  Level Atlanta Center
10:54PM 35.9106 -80.8494 261° West 179 206 8,000  Level Atlanta Center
10:55PM 35.9036 -80.9061 262° West 179 206 8,000  Level Atlanta Center
10:56PM 35.8967 -80.9653 264° West 179 206 8,000  Level Atlanta Center
10:57PM 35.8919 -81.0244 260° West 179 206 8,000  Level Atlanta Center
10:58PM 35.8831 -81.0889 264° West 179 206 8,000  Level Atlanta Center
10:59PM 35.8783 -81.1478 264° West 179 206 8,000  Level Atlanta Center
11:00PM 35.8733 -81.2069 256° West 179 206 8,000  Level Atlanta Center
11:01PM 35.8622 -81.2639 214° Southwest 179 206 8,000  Level Atlanta Center
11:02PM 35.8150 -81.3039 220° Southwest 179 206 8,000  Level Atlanta Center
11:03PM 35.7722 -81.3489 222° Southwest 200 230 8,000  Level Atlanta Center
11:04PM 35.7314 -81.3936 222° Southwest 200 230 8,000  Level Atlanta Center
11:05PM 35.6908 -81.4383 222° Southwest 200 230 8,000  Level Atlanta Center
11:06PM 35.6500 -81.4831 225° Southwest 200 230 8,000  Level Atlanta Center
11:07PM 35.6114 -81.5303 222° Southwest 200 230 8,000  Level Atlanta Center
11:08PM 35.5683 -81.5775 220° Southwest 200 230 8,000  Level Atlanta Center
11:09PM 35.5275 -81.6197 223° Southwest 205 236 8,000  Level Atlanta Center
11:10PM 35.4867 -81.6667 223° Southwest 205 236 8,000  Level Atlanta Center
11:11PM 35.4481 -81.7111 220° Southwest 200 230 8,000  Level Atlanta Center
11:12PM 35.4050 -81.7558 224° Southwest 200 230 8,100  Climbing Atlanta Center
11:13PM 35.3703 -81.7975 222° Southwest 200 230 8,100  Level Atlanta Center
11:14PM 35.3272 -81.8444 222° Southwest 205 236 8,100  Level Atlanta Center
11:15PM 35.2864 -81.8889 222° Southwest 205 236 8,100  Level Atlanta Center
11:16PM 35.2433 -81.9356 221° Southwest 205 236 8,100  Level Atlanta Center
11:17PM 35.2022 -81.9800 221° Southwest 205 236 8,100  Level Atlanta Center
11:18PM 35.1614 -82.0242 223° Southwest 205 236 8,100  Level Atlanta Center
11:19PM 35.1203 -82.0708 221° Southwest 210 242 8,100  Level Atlanta Center
11:30PM 34.6475 -82.5744 223° Southwest 217 250 8,100  Level Atlanta Center
11:31PM 34.6042 -82.6231 223° Southwest 218 251 8,100  Level Atlanta Center
11:32PM 34.5608 -82.6717 220° Southwest 218 251 8,100  Level Atlanta Center
11:33PM 34.5175 -82.7153 221° Southwest 212 244 8,100  Level Atlanta Center
11:34PM 34.4742 -82.7614 221° Southwest 212 244 8,100  Level Atlanta Center
11:35PM 34.4308 -82.8072 223° Southwest 212 244 8,100  Level Atlanta Center
11:36PM 34.3897 -82.8531 221° Southwest 212 244 8,100  Level Atlanta Center
11:37PM 34.3461 -82.8992 223° Southwest 212 244 8,100  Level Atlanta Center
11:38PM 34.3008 -82.9500 221° Southwest 212 244 8,100  Level Atlanta Center
11:39PM 34.2572 -82.9958 221° Southwest 212 244 8,100  Level Atlanta Center
11:40PM 34.2119 -83.0442 221° Southwest 212 244 8,100  Level Atlanta Center
11:41PM 34.1683 -83.0897 221° Southwest 212 244 8,100  Level Atlanta Center
11:42PM 34.1247 -83.1356 223° Southwest 212 244 8,100  Level Atlanta Center
11:43PM 34.0814 -83.1836 220° Southwest 212 244 8,100  Level Atlanta Center
11:44PM 34.0358 -83.2292 221° Southwest 212 244 8,100  Level Atlanta Center
11:45PM 33.9922 -83.2747 222° Southwest 212 244 8,200  Climbing Atlanta Center
11:46PM 33.9486 -83.3225 248° West 212 244 8,200  Level Atlanta Center
11:47PM 33.9303 -83.3778 272° West 198 228 8,200  Level Atlanta Center
11:48PM 33.9325 -83.4406 266° West 187 215 8,200  Level Atlanta Center
11:49PM 33.9286 -83.5006 270° West 182 209 8,200 -60 Level Atlanta Center
11:50PM 33.9289 -83.5606 262° West 182 209 8,100 -420 Descending Atlanta Center
11:52PM 33.9167 -83.6667 270° West 196 226 7,100 -540 Descending Atlanta TRACON
11:53PM 33.9167 -83.7333 270° West 194 223 6,700 -480 Descending Atlanta TRACON
11:54PM 33.9167 -83.7833 270° West 191 220 6,200 -1,200 Descending Atlanta TRACON
11:54PM 33.9167 -83.8500 254° West 205 236 4,600 -1,560 Descending Atlanta TRACON
11:55PM 33.9089 -83.8836 265° West 206 237 4,000 -360 Descending Atlanta Center
11:56PM 33.9047 -83.9411 265° West 193 222 4,100 -240 Climbing Atlanta Center
11:57PM 33.9006 -84.0039 263° West 182 209 3,600 -600 Descending Atlanta Center
11:58PM 33.8944 -84.0639 262° West 176 203 2,900 1,200 Descending Atlanta Center
11:59PM 33.8881 -84.1164 262° West 176 203 6,000 3,060 Climbing Atlanta Center
12:07AM 33.8667 -84.3000 350° North  Level FlightAware Approximate
12:08AM 33.9194 -84.3116 170° South  Level Estimated
12:09AM 33.8667 -84.3000 350° North  Level FlightAware Approximate
12:10AM 33.9194 -84.3116 170° South  Level Estimated
12:11AM 33.8667 -84.3000 350° North  Level FlightAware Approximate
12:12AM 33.9194 -84.3116 170° South  Level Estimated
12:13AM 33.8667 -84.3000 350° North  Level FlightAware Approximate
12:14AM 33.9194 -84.3116 170° South  Level Estimated
12:15AM 33.8667 -84.3000 350° North  Level FlightAware Approximate
12:16AM 33.9194 -84.3116 170° South  Level Estimated
12:17AM 33.8667 -84.3000 350° North  Level FlightAware Approximate
12:18AM 33.9194 -84.3116 170° South  Level Estimated
12:19AM 33.8667 -84.3000 170° South  Level FlightAware Approximate